sensor_id;sensor_type;location;lat;lon;timestamp;temperature;humidity
4183;DHT22;2105;52.300;9.182;2023-02-26T00:01:24;-0.20;99.90
4183;DHT22;2105;52.300;9.182;2023-02-26T00:03:54;-0.30;99.90
4183;DHT22;2105;52.300;9.182;2023-02-26T00:06:22;-0.20;99.90
4183;DHT22;2105;52.300;9.182;2023-02-26T00:08:49;-0.30;99.90
4183;DHT22;2105;52.300;9.182;2023-02-26T00:11:17;-0.30;1.00
4183;DHT22;2105;52.300;9.182;2023-02-26T00:13:44;-0.30;1.00
4183;DHT22;2105;52.300;9.182;2023-02-26T00:16:17;-0.30;1.00
4183;DHT22;2105;52.300;9.182;2023-02-26T00:18:48;-0.40;1.00
4183;DHT22;2105;52.300;9.182;2023-02-26T00:21:18;-0.50;99.90
4183;DHT22;2105;52.300;9.182;2023-02-26T00:23:47;-0.60;1.00
4183;DHT22;2105;52.300;9.182;2023-02-26T00:26:14;-0.50;1.00
4183;DHT22;2105;52.300;9.182;2023-02-26T00:28:41;-0.40;99.90
4183;DHT22;2105;52.300;9.182;2023-02-26T00:31:12;-0.30;99.90
4183;DHT22;2105;52.300;9.182;2023-02-26T00:33:53;-0.30;1.00
4183;DHT22;2105;52.300;9.182;2023-02-26T01:17:58;-0.70;1.00
4183;DHT22;2105;52.300;9.182;2023-02-26T01:20:42;-0.70;1.00
4183;DHT22;2105;52.300;9.182;2023-02-26T01:23:15;-0.70;1.00
4183;DHT22;2105;52.300;9.182;2023-02-26T01:25:47;-0.70;99.90
4183;DHT22;2105;52.300;9.182;2023-02-26T01:28:15;-0.60;1.00
4183;DHT22;2105;52.300;9.182;2023-02-26T01:30:43;-0.60;99.90
4183;DHT22;2105;52.300;9.182;2023-02-26T01:33:16;-0.60;1.00
4183;DHT22;2105;52.300;9.182;2023-02-26T01:35:49;-0.60;1.00
4183;DHT22;2105;52.300;9.182;2023-02-26T01:38:21;-0.50;1.00
4183;DHT22;2105;52.300;9.182;2023-02-26T01:41:20;-0.40;99.90
4183;DHT22;2105;52.300;9.182;2023-02-26T01:43:56;-0.30;1.00
4183;DHT22;2105;52.300;9.182;2023-02-26T01:46:30;-0.30;1.00
4183;DHT22;2105;52.300;9.182;2023-02-26T01:49:01;-0.20;1.00
4183;DHT22;2105;52.300;9.182;2023-02-26T01:51:44;-0.20;1.00
4183;DHT22;2105;52.300;9.182;2023-02-26T01:54:12;0.00;1.00
4183;DHT22;2105;52.300;9.182;2023-02-26T01:56:40;0.10;99.90
4183;DHT22;2105;52.300;9.182;2023-02-26T01:59:08;0.10;1.00
4183;DHT22;2105;52.300;9.182;2023-02-26T02:01:38;0.10;1.00
4183;DHT22;2105;52.300;9.182;2023-02-26T02:04:11;0.10;22.20
4183;DHT22;2105;52.300;9.182;2023-02-26T02:06:38;0.20;1.00
4183;DHT22;2105;52.300;9.182;2023-02-26T02:09:06;0.20;99.90
4183;DHT22;2105;52.300;9.182;2023-02-26T02:11:33;0.20;1.00
4183;DHT22;2105;52.300;9.182;2023-02-26T02:14:10;0.10;1.00
4183;DHT22;2105;52.300;9.182;2023-02-26T02:16:43;0.20;1.00
4183;DHT22;2105;52.300;9.182;2023-02-26T02:22:34;0.20;1.00
4183;DHT22;2105;52.300;9.182;2023-02-26T02:25:19;0.20;1.00
4183;DHT22;2105;52.300;9.182;2023-02-26T02:27:54;0.20;1.00
4183;DHT22;2105;52.300;9.182;2023-02-26T02:30:30;0.30;99.90
4183;DHT22;2105;52.300;9.182;2023-02-26T02:33:05;0.30;1.00
4183;DHT22;2105;52.300;9.182;2023-02-26T02:35:40;0.30;1.00
4183;DHT22;2105;52.300;9.182;2023-02-26T02:38:10;0.20;1.00
4183;DHT22;2105;52.300;9.182;2023-02-26T02:40:43;0.40;1.00
4183;DHT22;2105;52.300;9.182;2023-02-26T02:43:14;0.30;1.00
4183;DHT22;2105;52.300;9.182;2023-02-26T02:45:43;0.40;1.00
4183;DHT22;2105;52.300;9.182;2023-02-26T02:48:16;0.30;99.90
4183;DHT22;2105;52.300;9.182;2023-02-26T02:50:47;0.30;99.90
4183;DHT22;2105;52.300;9.182;2023-02-26T02:53:18;0.20;99.90
4183;DHT22;2105;52.300;9.182;2023-02-26T02:55:51;0.30;99.90
4183;DHT22;2105;52.300;9.182;2023-02-26T02:58:22;0.30;99.90
4183;DHT22;2105;52.300;9.182;2023-02-26T03:00:53;0.30;99.90
4183;DHT22;2105;52.300;9.182;2023-02-26T03:03:26;0.20;1.00
4183;DHT22;2105;52.300;9.182;2023-02-26T03:05:55;0.20;1.00
4183;DHT22;2105;52.300;9.182;2023-02-26T03:08:24;0.20;24.10
4183;DHT22;2105;52.300;9.182;2023-02-26T03:10:52;0.20;1.00
4183;DHT22;2105;52.300;9.182;2023-02-26T03:13:20;0.20;33.40
4183;DHT22;2105;52.300;9.182;2023-02-26T03:15:56;0.20;99.90
4183;DHT22;2105;52.300;9.182;2023-02-26T03:18:34;0.20;99.90
4183;DHT22;2105;52.300;9.182;2023-02-26T03:21:07;0.20;54.40
4183;DHT22;2105;52.300;9.182;2023-02-26T03:23:44;0.10;99.90
4183;DHT22;2105;52.300;9.182;2023-02-26T03:26:21;0.10;99.90
4183;DHT22;2105;52.300;9.182;2023-02-26T03:28:51;0.00;1.00
4183;DHT22;2105;52.300;9.182;2023-02-26T03:31:26;0.00;1.00
4183;DHT22;2105;52.300;9.182;2023-02-26T03:33:59;0.00;99.90
4183;DHT22;2105;52.300;9.182;2023-02-26T03:36:30;0.00;99.90
4183;DHT22;2105;52.300;9.182;2023-02-26T03:39:02;0.00;99.90
4183;DHT22;2105;52.300;9.182;2023-02-26T03:41:36;0.10;1.00
4183;DHT22;2105;52.300;9.182;2023-02-26T03:44:08;0.20;99.90
4183;DHT22;2105;52.300;9.182;2023-02-26T03:46:41;0.10;99.90
4183;DHT22;2105;52.300;9.182;2023-02-26T03:49:13;0.00;99.90
4183;DHT22;2105;52.300;9.182;2023-02-26T03:51:44;0.10;99.90
4183;DHT22;2105;52.300;9.182;2023-02-26T03:54:16;0.10;99.90
4183;DHT22;2105;52.300;9.182;2023-02-26T03:56:46;0.00;99.90
4183;DHT22;2105;52.300;9.182;2023-02-26T03:59:14;0.00;1.00
4183;DHT22;2105;52.300;9.182;2023-02-26T04:01:45;0.10;1.00
4183;DHT22;2105;52.300;9.182;2023-02-26T04:04:19;0.10;99.90
4183;DHT22;2105;52.300;9.182;2023-02-26T04:06:48;0.00;99.90
4183;DHT22;2105;52.300;9.182;2023-02-26T04:09:18;0.00;99.90
4183;DHT22;2105;52.300;9.182;2023-02-26T04:11:47;0.00;99.90
4183;DHT22;2105;52.300;9.182;2023-02-26T04:14:14;0.00;99.90
4183;DHT22;2105;52.300;9.182;2023-02-26T04:16:41;-0.10;1.00
4183;DHT22;2105;52.300;9.182;2023-02-26T04:19:09;-0.20;1.00
4183;DHT22;2105;52.300;9.182;2023-02-26T04:21:37;-0.20;99.90
4183;DHT22;2105;52.300;9.182;2023-02-26T04:24:04;-0.10;1.00
4183;DHT22;2105;52.300;9.182;2023-02-26T04:26:31;-0.10;1.00
4183;DHT22;2105;52.300;9.182;2023-02-26T04:28:58;-0.10;1.00
4183;DHT22;2105;52.300;9.182;2023-02-26T04:31:24;-0.10;1.00
4183;DHT22;2105;52.300;9.182;2023-02-26T04:33:51;-0.10;1.00
4183;DHT22;2105;52.300;9.182;2023-02-26T04:36:18;-0.10;1.00
4183;DHT22;2105;52.300;9.182;2023-02-26T04:38:46;-0.10;1.00
4183;DHT22;2105;52.300;9.182;2023-02-26T04:41:13;-0.20;1.00
4183;DHT22;2105;52.300;9.182;2023-02-26T04:43:40;-0.20;1.00
4183;DHT22;2105;52.300;9.182;2023-02-26T04:46:07;-0.20;1.00
4183;DHT22;2105;52.300;9.182;2023-02-26T04:48:33;-0.30;1.00
4183;DHT22;2105;52.300;9.182;2023-02-26T04:51:00;-0.30;99.90
4183;DHT22;2105;52.300;9.182;2023-02-26T04:53:27;-0.40;99.90
4183;DHT22;2105;52.300;9.182;2023-02-26T04:55:55;-0.40;99.90
4183;DHT22;2105;52.300;9.182;2023-02-26T04:58:22;-0.50;99.90
4183;DHT22;2105;52.300;9.182;2023-02-26T05:00:49;-0.60;99.90
4183;DHT22;2105;52.300;9.182;2023-02-26T05:03:18;-0.70;14.20
4183;DHT22;2105;52.300;9.182;2023-02-26T05:05:45;-0.60;99.90
4183;DHT22;2105;52.300;9.182;2023-02-26T05:08:12;-0.60;99.90
4183;DHT22;2105;52.300;9.182;2023-02-26T05:10:39;-0.60;99.90
4183;DHT22;2105;52.300;9.182;2023-02-26T05:13:07;-0.60;1.00
4183;DHT22;2105;52.300;9.182;2023-02-26T05:15:34;-0.60;1.00
4183;DHT22;2105;52.300;9.182;2023-02-26T05:18:01;-0.60;1.00
4183;DHT22;2105;52.300;9.182;2023-02-26T05:20:28;-0.70;1.00
4183;DHT22;2105;52.300;9.182;2023-02-26T05:22:54;-0.70;93.80
4183;DHT22;2105;52.300;9.182;2023-02-26T05:25:21;-0.60;74.70
4183;DHT22;2105;52.300;9.182;2023-02-26T05:27:48;-0.70;1.00
4183;DHT22;2105;52.300;9.182;2023-02-26T05:30:17;-0.70;1.00
4183;DHT22;2105;52.300;9.182;2023-02-26T05:32:44;-0.70;1.00
4183;DHT22;2105;52.300;9.182;2023-02-26T05:35:11;-0.70;90.70
4183;DHT22;2105;52.300;9.182;2023-02-26T05:37:38;-0.70;1.00
4183;DHT22;2105;52.300;9.182;2023-02-26T05:40:08;-0.80;99.90
4183;DHT22;2105;52.300;9.182;2023-02-26T05:42:36;-0.70;99.90
4183;DHT22;2105;52.300;9.182;2023-02-26T05:45:04;-0.60;99.90
4183;DHT22;2105;52.300;9.182;2023-02-26T05:47:33;-0.60;99.90
4183;DHT22;2105;52.300;9.182;2023-02-26T05:50:00;-0.70;99.90
4183;DHT22;2105;52.300;9.182;2023-02-26T05:52:27;-0.70;99.90
4183;DHT22;2105;52.300;9.182;2023-02-26T05:54:54;-0.70;1.00
4183;DHT22;2105;52.300;9.182;2023-02-26T05:57:21;-0.80;99.90
4183;DHT22;2105;52.300;9.182;2023-02-26T05:59:48;-0.80;1.00
4183;DHT22;2105;52.300;9.182;2023-02-26T06:02:15;-0.80;52.20
4183;DHT22;2105;52.300;9.182;2023-02-26T06:04:43;-0.90;99.90
4183;DHT22;2105;52.300;9.182;2023-02-26T06:07:10;-0.90;99.90
4183;DHT22;2105;52.300;9.182;2023-02-26T06:09:37;-0.90;1.00
4183;DHT22;2105;52.300;9.182;2023-02-26T06:12:04;-0.90;1.00
4183;DHT22;2105;52.300;9.182;2023-02-26T06:14:32;-0.90;1.00
4183;DHT22;2105;52.300;9.182;2023-02-26T06:17:01;-1.00;1.00
4183;DHT22;2105;52.300;9.182;2023-02-26T06:19:28;-1.10;1.00
4183;DHT22;2105;52.300;9.182;2023-02-26T06:21:56;-1.20;99.90
4183;DHT22;2105;52.300;9.182;2023-02-26T06:24:23;-1.30;99.90
4183;DHT22;2105;52.300;9.182;2023-02-26T06:26:51;-1.40;99.90
4183;DHT22;2105;52.300;9.182;2023-02-26T06:29:18;-1.30;1.00
4183;DHT22;2105;52.300;9.182;2023-02-26T06:31:46;-1.30;99.90
4183;DHT22;2105;52.300;9.182;2023-02-26T06:34:14;-1.40;99.90
4183;DHT22;2105;52.300;9.182;2023-02-26T06:36:42;-1.40;99.90
4183;DHT22;2105;52.300;9.182;2023-02-26T06:39:10;-1.40;1.00
4183;DHT22;2105;52.300;9.182;2023-02-26T06:41:38;-1.20;1.00
4183;DHT22;2105;52.300;9.182;2023-02-26T06:44:05;-1.00;99.90
4183;DHT22;2105;52.300;9.182;2023-02-26T06:46:32;-0.90;99.90
4183;DHT22;2105;52.300;9.182;2023-02-26T06:49:00;-0.80;1.00
4183;DHT22;2105;52.300;9.182;2023-02-26T06:51:27;-0.80;1.00
4183;DHT22;2105;52.300;9.182;2023-02-26T06:53:55;-0.80;99.90
4183;DHT22;2105;52.300;9.182;2023-02-26T06:56:24;-0.70;99.90
4183;DHT22;2105;52.300;9.182;2023-02-26T06:58:52;-0.70;99.90
4183;DHT22;2105;52.300;9.182;2023-02-26T07:01:18;-0.40;1.00
4183;DHT22;2105;52.300;9.182;2023-02-26T07:03:45;-0.10;1.00
4183;DHT22;2105;52.300;9.182;2023-02-26T07:06:13;0.30;1.00
4183;DHT22;2105;52.300;9.182;2023-02-26T07:08:41;0.40;1.00
4183;DHT22;2105;52.300;9.182;2023-02-26T07:11:10;0.40;1.00
4183;DHT22;2105;52.300;9.182;2023-02-26T07:13:40;0.90;1.00
4183;DHT22;2105;52.300;9.182;2023-02-26T07:16:07;1.30;1.00
4183;DHT22;2105;52.300;9.182;2023-02-26T07:18:34;1.80;1.00
4183;DHT22;2105;52.300;9.182;2023-02-26T07:21:03;2.20;99.90
4183;DHT22;2105;52.300;9.182;2023-02-26T07:23:30;2.40;99.90
4183;DHT22;2105;52.300;9.182;2023-02-26T07:25:57;2.40;1.00
4183;DHT22;2105;52.300;9.182;2023-02-26T07:28:24;2.50;1.00
4183;DHT22;2105;52.300;9.182;2023-02-26T07:30:54;2.70;1.00
4183;DHT22;2105;52.300;9.182;2023-02-26T07:33:21;2.70;99.90
4183;DHT22;2105;52.300;9.182;2023-02-26T07:35:48;2.60;99.90
4183;DHT22;2105;52.300;9.182;2023-02-26T07:38:15;3.10;99.90
4183;DHT22;2105;52.300;9.182;2023-02-26T07:40:42;3.70;99.90
4183;DHT22;2105;52.300;9.182;2023-02-26T07:43:09;3.90;1.00
4183;DHT22;2105;52.300;9.182;2023-02-26T07:45:37;4.30;1.00
4183;DHT22;2105;52.300;9.182;2023-02-26T07:48:11;4.90;99.90
4183;DHT22;2105;52.300;9.182;2023-02-26T07:50:38;5.10;41.20
4183;DHT22;2105;52.300;9.182;2023-02-26T07:53:07;5.50;1.00
4183;DHT22;2105;52.300;9.182;2023-02-26T07:55:38;5.60;1.00
4183;DHT22;2105;52.300;9.182;2023-02-26T07:58:05;6.00;1.00
4183;DHT22;2105;52.300;9.182;2023-02-26T08:00:32;5.70;1.00
4183;DHT22;2105;52.300;9.182;2023-02-26T08:02:58;5.80;1.00
4183;DHT22;2105;52.300;9.182;2023-02-26T08:05:28;5.90;1.00
4183;DHT22;2105;52.300;9.182;2023-02-26T08:07:56;6.20;1.00
4183;DHT22;2105;52.300;9.182;2023-02-26T08:10:25;6.70;99.90
4183;DHT22;2105;52.300;9.182;2023-02-26T08:12:56;7.00;99.90
4183;DHT22;2105;52.300;9.182;2023-02-26T08:15:24;7.00;99.90
4183;DHT22;2105;52.300;9.182;2023-02-26T08:17:51;7.30;99.90
4183;DHT22;2105;52.300;9.182;2023-02-26T08:20:18;7.90;99.90
4183;DHT22;2105;52.300;9.182;2023-02-26T08:22:46;8.10;99.90
4183;DHT22;2105;52.300;9.182;2023-02-26T08:25:13;7.90;99.90
4183;DHT22;2105;52.300;9.182;2023-02-26T08:27:40;7.40;99.90
4183;DHT22;2105;52.300;9.182;2023-02-26T08:30:08;7.70;99.90
4183;DHT22;2105;52.300;9.182;2023-02-26T08:32:36;8.00;99.90
4183;DHT22;2105;52.300;9.182;2023-02-26T08:35:04;8.10;99.90
4183;DHT22;2105;52.300;9.182;2023-02-26T08:37:31;7.70;99.90
4183;DHT22;2105;52.300;9.182;2023-02-26T08:39:59;7.30;99.90
4183;DHT22;2105;52.300;9.182;2023-02-26T08:42:26;7.10;99.90
4183;DHT22;2105;52.300;9.182;2023-02-26T08:44:53;6.90;99.90
4183;DHT22;2105;52.300;9.182;2023-02-26T08:47:20;6.70;99.90
4183;DHT22;2105;52.300;9.182;2023-02-26T08:49:46;5.70;99.90
4183;DHT22;2105;52.300;9.182;2023-02-26T08:52:13;5.00;99.90
4183;DHT22;2105;52.300;9.182;2023-02-26T08:54:40;4.40;99.90
4183;DHT22;2105;52.300;9.182;2023-02-26T08:57:08;4.20;99.90
4183;DHT22;2105;52.300;9.182;2023-02-26T08:59:35;4.20;99.90
4183;DHT22;2105;52.300;9.182;2023-02-26T09:02:02;4.30;99.90
4183;DHT22;2105;52.300;9.182;2023-02-26T09:04:29;4.10;99.90
4183;DHT22;2105;52.300;9.182;2023-02-26T09:06:56;3.70;99.90
4183;DHT22;2105;52.300;9.182;2023-02-26T09:09:23;3.60;1.00
4183;DHT22;2105;52.300;9.182;2023-02-26T09:11:49;3.70;1.00
4183;DHT22;2105;52.300;9.182;2023-02-26T09:14:18;3.80;1.00
4183;DHT22;2105;52.300;9.182;2023-02-26T09:16:44;3.80;1.00
4183;DHT22;2105;52.300;9.182;2023-02-26T09:19:11;3.80;1.00
4183;DHT22;2105;52.300;9.182;2023-02-26T09:21:38;4.20;1.00
4183;DHT22;2105;52.300;9.182;2023-02-26T09:24:05;4.30;99.90
4183;DHT22;2105;52.300;9.182;2023-02-26T09:26:32;4.40;99.90
4183;DHT22;2105;52.300;9.182;2023-02-26T09:28:59;4.50;99.90
4183;DHT22;2105;52.300;9.182;2023-02-26T09:31:27;4.50;99.90
4183;DHT22;2105;52.300;9.182;2023-02-26T09:33:54;4.30;99.90
4183;DHT22;2105;52.300;9.182;2023-02-26T09:36:21;4.00;99.90
4183;DHT22;2105;52.300;9.182;2023-02-26T09:38:48;3.80;99.90
4183;DHT22;2105;52.300;9.182;2023-02-26T09:41:18;4.00;99.90
4183;DHT22;2105;52.300;9.182;2023-02-26T09:43:56;4.30;99.90
4183;DHT22;2105;52.300;9.182;2023-02-26T09:46:33;4.60;99.90
4183;DHT22;2105;52.300;9.182;2023-02-26T09:49:14;4.70;99.90
4183;DHT22;2105;52.300;9.182;2023-02-26T09:51:49;4.60;99.90
4183;DHT22;2105;52.300;9.182;2023-02-26T09:54:21;4.60;99.90
4183;DHT22;2105;52.300;9.182;2023-02-26T09:56:52;4.90;99.90
4183;DHT22;2105;52.300;9.182;2023-02-26T09:59:19;5.00;99.90
4183;DHT22;2105;52.300;9.182;2023-02-26T10:01:58;5.10;99.90
4183;DHT22;2105;52.300;9.182;2023-02-26T10:04:49;5.20;99.90
4183;DHT22;2105;52.300;9.182;2023-02-26T10:07:25;5.10;99.90
4183;DHT22;2105;52.300;9.182;2023-02-26T10:10:08;5.40;99.90
4183;DHT22;2105;52.300;9.182;2023-02-26T10:12:40;5.40;99.90
4183;DHT22;2105;52.300;9.182;2023-02-26T10:15:12;5.40;99.90
4183;DHT22;2105;52.300;9.182;2023-02-26T10:17:52;5.60;99.90
4183;DHT22;2105;52.300;9.182;2023-02-26T10:20:26;6.00;99.90
4183;DHT22;2105;52.300;9.182;2023-02-26T10:23:00;6.10;99.90
4183;DHT22;2105;52.300;9.182;2023-02-26T10:25:35;6.00;99.90
4183;DHT22;2105;52.300;9.182;2023-02-26T10:28:19;6.00;99.90
4183;DHT22;2105;52.300;9.182;2023-02-26T10:30:54;6.00;99.90
4183;DHT22;2105;52.300;9.182;2023-02-26T10:33:32;6.20;99.90
4183;DHT22;2105;52.300;9.182;2023-02-26T10:36:08;6.30;99.90
4183;DHT22;2105;52.300;9.182;2023-02-26T10:38:38;6.50;99.90
4183;DHT22;2105;52.300;9.182;2023-02-26T10:41:09;6.50;67.90
4183;DHT22;2105;52.300;9.182;2023-02-26T10:43:40;6.60;77.10
4183;DHT22;2105;52.300;9.182;2023-02-26T10:46:17;6.70;59.30
4183;DHT22;2105;52.300;9.182;2023-02-26T10:49:07;6.20;39.30
4183;DHT22;2105;52.300;9.182;2023-02-26T10:51:40;6.00;63.80
4183;DHT22;2105;52.300;9.182;2023-02-26T10:54:14;6.10;87.40
4183;DHT22;2105;52.300;9.182;2023-02-26T10:56:42;6.00;55.10
4183;DHT22;2105;52.300;9.182;2023-02-26T10:59:08;5.80;70.90
4183;DHT22;2105;52.300;9.182;2023-02-26T11:01:35;5.70;80.10
4183;DHT22;2105;52.300;9.182;2023-02-26T11:04:06;5.60;91.00
4183;DHT22;2105;52.300;9.182;2023-02-26T11:06:37;5.60;83.90
4183;DHT22;2105;52.300;9.182;2023-02-26T11:09:15;5.50;83.20
4183;DHT22;2105;52.300;9.182;2023-02-26T11:11:47;5.60;93.10
4183;DHT22;2105;52.300;9.182;2023-02-26T11:14:14;5.80;99.90
4183;DHT22;2105;52.300;9.182;2023-02-26T11:16:44;6.10;91.90
4183;DHT22;2105;52.300;9.182;2023-02-26T11:19:14;6.30;56.40
4183;DHT22;2105;52.300;9.182;2023-02-26T11:21:44;6.60;41.80
4183;DHT22;2105;52.300;9.182;2023-02-26T11:24:15;7.00;33.80
4183;DHT22;2105;52.300;9.182;2023-02-26T11:26:47;7.20;19.30
4183;DHT22;2105;52.300;9.182;2023-02-26T11:29:15;7.50;21.10
4183;DHT22;2105;52.300;9.182;2023-02-26T11:31:47;7.50;1.00
4183;DHT22;2105;52.300;9.182;2023-02-26T11:34:15;7.00;18.30
4183;DHT22;2105;52.300;9.182;2023-02-26T11:36:47;6.40;1.00
4183;DHT22;2105;52.300;9.182;2023-02-26T11:39:15;5.70;4.50
4183;DHT22;2105;52.300;9.182;2023-02-26T11:41:46;5.30;15.80
4183;DHT22;2105;52.300;9.182;2023-02-26T11:44:14;4.90;46.80
4183;DHT22;2105;52.300;9.182;2023-02-26T11:46:45;4.70;78.90
4183;DHT22;2105;52.300;9.182;2023-02-26T11:49:15;4.70;99.90
4183;DHT22;2105;52.300;9.182;2023-02-26T11:51:45;5.30;96.90
4183;DHT22;2105;52.300;9.182;2023-02-26T11:54:22;5.80;87.40
4183;DHT22;2105;52.300;9.182;2023-02-26T11:56:49;6.40;57.40
4183;DHT22;2105;52.300;9.182;2023-02-26T11:59:19;6.80;29.20
4183;DHT22;2105;52.300;9.182;2023-02-26T12:01:46;7.30;4.20
4183;DHT22;2105;52.300;9.182;2023-02-26T12:04:35;7.70;1.00
4183;DHT22;2105;52.300;9.182;2023-02-26T12:07:11;8.00;1.00
4183;DHT22;2105;52.300;9.182;2023-02-26T12:09:41;8.00;1.00
4183;DHT22;2105;52.300;9.182;2023-02-26T12:12:36;7.50;1.00
4183;DHT22;2105;52.300;9.182;2023-02-26T12:15:19;6.60;1.00
4183;DHT22;2105;52.300;9.182;2023-02-26T12:18:37;6.30;1.00
4183;DHT22;2105;52.300;9.182;2023-02-26T12:21:16;6.30;11.60
4183;DHT22;2105;52.300;9.182;2023-02-26T12:24:14;6.30;1.00
4183;DHT22;2105;52.300;9.182;2023-02-26T12:26:52;6.80;2.20
4183;DHT22;2105;52.300;9.182;2023-02-26T12:29:42;7.40;1.00
4183;DHT22;2105;52.300;9.182;2023-02-26T12:32:30;7.90;1.00
4183;DHT22;2105;52.300;9.182;2023-02-26T12:35:15;8.30;1.00
4183;DHT22;2105;52.300;9.182;2023-02-26T12:37:54;7.70;1.00
4183;DHT22;2105;52.300;9.182;2023-02-26T12:40:47;7.00;1.00
4183;DHT22;2105;52.300;9.182;2023-02-26T12:43:27;6.30;1.00
4183;DHT22;2105;52.300;9.182;2023-02-26T12:46:01;6.30;1.00
4183;DHT22;2105;52.300;9.182;2023-02-26T12:48:51;6.90;1.00
4183;DHT22;2105;52.300;9.182;2023-02-26T12:51:33;7.40;1.00
4183;DHT22;2105;52.300;9.182;2023-02-26T12:54:16;7.60;1.00
4183;DHT22;2105;52.300;9.182;2023-02-26T12:57:04;7.60;1.00
4183;DHT22;2105;52.300;9.182;2023-02-26T12:59:52;7.60;1.00
4183;DHT22;2105;52.300;9.182;2023-02-26T13:02:53;7.40;1.00
4183;DHT22;2105;52.300;9.182;2023-02-26T13:05:39;7.50;1.00
4183;DHT22;2105;52.300;9.182;2023-02-26T13:08:16;7.80;1.00
4183;DHT22;2105;52.300;9.182;2023-02-26T13:10:55;7.80;1.00
4183;DHT22;2105;52.300;9.182;2023-02-26T13:13:50;7.90;1.00
4183;DHT22;2105;52.300;9.182;2023-02-26T13:16:29;8.10;1.00
4183;DHT22;2105;52.300;9.182;2023-02-26T13:19:02;8.30;1.00
4183;DHT22;2105;52.300;9.182;2023-02-26T13:21:35;8.70;1.00
4183;DHT22;2105;52.300;9.182;2023-02-26T13:24:07;8.40;1.00
4183;DHT22;2105;52.300;9.182;2023-02-26T13:26:37;7.90;1.00
4183;DHT22;2105;52.300;9.182;2023-02-26T13:29:09;7.70;1.00
4183;DHT22;2105;52.300;9.182;2023-02-26T13:31:41;7.40;1.00
4183;DHT22;2105;52.300;9.182;2023-02-26T13:34:12;7.30;1.00
4183;DHT22;2105;52.300;9.182;2023-02-26T13:36:41;7.20;1.00
4183;DHT22;2105;52.300;9.182;2023-02-26T13:39:35;7.40;1.00
4183;DHT22;2105;52.300;9.182;2023-02-26T13:42:16;7.40;1.00
4183;DHT22;2105;52.300;9.182;2023-02-26T13:44:53;7.40;1.00
4183;DHT22;2105;52.300;9.182;2023-02-26T13:47:33;7.30;1.00
4183;DHT22;2105;52.300;9.182;2023-02-26T13:50:18;7.10;1.00
4183;DHT22;2105;52.300;9.182;2023-02-26T13:52:51;7.00;1.00
4183;DHT22;2105;52.300;9.182;2023-02-26T13:55:40;7.00;1.00
4183;DHT22;2105;52.300;9.182;2023-02-26T13:58:32;7.20;1.00
4183;DHT22;2105;52.300;9.182;2023-02-26T14:01:05;7.70;1.00
4183;DHT22;2105;52.300;9.182;2023-02-26T14:03:33;7.90;1.00
4183;DHT22;2105;52.300;9.182;2023-02-26T14:06:35;8.00;1.00
4183;DHT22;2105;52.300;9.182;2023-02-26T14:09:04;7.90;1.00
4183;DHT22;2105;52.300;9.182;2023-02-26T14:11:45;8.10;1.00
4183;DHT22;2105;52.300;9.182;2023-02-26T14:14:30;8.50;1.00
4183;DHT22;2105;52.300;9.182;2023-02-26T14:17:18;8.20;1.00
4183;DHT22;2105;52.300;9.182;2023-02-26T14:20:18;8.10;1.00
4183;DHT22;2105;52.300;9.182;2023-02-26T14:22:48;7.80;1.00
4183;DHT22;2105;52.300;9.182;2023-02-26T14:25:20;7.60;1.00
4183;DHT22;2105;52.300;9.182;2023-02-26T14:28:20;7.30;1.00
4183;DHT22;2105;52.300;9.182;2023-02-26T14:31:11;7.20;1.00
4183;DHT22;2105;52.300;9.182;2023-02-26T14:33:43;7.00;1.00
4183;DHT22;2105;52.300;9.182;2023-02-26T14:36:16;6.80;1.00
4183;DHT22;2105;52.300;9.182;2023-02-26T14:38:45;6.60;1.00
4183;DHT22;2105;52.300;9.182;2023-02-26T14:41:22;6.40;1.00
4183;DHT22;2105;52.300;9.182;2023-02-26T14:43:57;6.10;1.00
4183;DHT22;2105;52.300;9.182;2023-02-26T14:46:25;5.90;1.00
4183;DHT22;2105;52.300;9.182;2023-02-26T14:48:52;5.80;1.00
4183;DHT22;2105;52.300;9.182;2023-02-26T14:51:31;6.00;1.00
4183;DHT22;2105;52.300;9.182;2023-02-26T14:54:23;6.00;1.00
4183;DHT22;2105;52.300;9.182;2023-02-26T14:57:00;6.00;1.00
4183;DHT22;2105;52.300;9.182;2023-02-26T14:59:41;6.00;1.00
4183;DHT22;2105;52.300;9.182;2023-02-26T15:02:21;5.90;1.00
4183;DHT22;2105;52.300;9.182;2023-02-26T15:08:04;5.70;1.00
4183;DHT22;2105;52.300;9.182;2023-02-26T15:10:43;5.60;1.00
4183;DHT22;2105;52.300;9.182;2023-02-26T15:13:27;5.50;1.00
4183;DHT22;2105;52.300;9.182;2023-02-26T15:16:05;5.50;1.00
4183;DHT22;2105;52.300;9.182;2023-02-26T15:19:00;5.50;1.00
4183;DHT22;2105;52.300;9.182;2023-02-26T15:21:39;5.70;1.00
4183;DHT22;2105;52.300;9.182;2023-02-26T15:24:10;5.70;1.00
4183;DHT22;2105;52.300;9.182;2023-02-26T15:26:43;5.60;1.00
4183;DHT22;2105;52.300;9.182;2023-02-26T15:29:12;5.50;1.00
4183;DHT22;2105;52.300;9.182;2023-02-26T15:31:41;5.50;1.00
4183;DHT22;2105;52.300;9.182;2023-02-26T15:34:10;5.40;1.00
4183;DHT22;2105;52.300;9.182;2023-02-26T15:36:40;5.30;1.00
4183;DHT22;2105;52.300;9.182;2023-02-26T15:39:11;5.10;1.00
4183;DHT22;2105;52.300;9.182;2023-02-26T15:41:40;5.00;1.00
4183;DHT22;2105;52.300;9.182;2023-02-26T15:44:08;4.90;1.00
4183;DHT22;2105;52.300;9.182;2023-02-26T15:46:39;4.90;1.00
4183;DHT22;2105;52.300;9.182;2023-02-26T15:49:08;4.90;1.00
4183;DHT22;2105;52.300;9.182;2023-02-26T15:51:37;5.00;1.00
4183;DHT22;2105;52.300;9.182;2023-02-26T15:54:04;4.90;1.00
4183;DHT22;2105;52.300;9.182;2023-02-26T15:56:35;4.90;1.00
4183;DHT22;2105;52.300;9.182;2023-02-26T15:59:05;4.80;1.00
4183;DHT22;2105;52.300;9.182;2023-02-26T16:01:33;4.90;3.00
4183;DHT22;2105;52.300;9.182;2023-02-26T16:04:02;4.90;10.30
4183;DHT22;2105;52.300;9.182;2023-02-26T16:06:33;4.90;20.40
4183;DHT22;2105;52.300;9.182;2023-02-26T16:09:01;4.90;25.40
4183;DHT22;2105;52.300;9.182;2023-02-26T16:11:31;4.80;41.50
4183;DHT22;2105;52.300;9.182;2023-02-26T16:14:02;4.80;53.40
4183;DHT22;2105;52.300;9.182;2023-02-26T16:16:40;4.90;67.60
4183;DHT22;2105;52.300;9.182;2023-02-26T16:19:09;4.80;55.50
4183;DHT22;2105;52.300;9.182;2023-02-26T16:21:39;4.60;56.60
4183;DHT22;2105;52.300;9.182;2023-02-26T16:24:12;4.50;79.50
4183;DHT22;2105;52.300;9.182;2023-02-26T16:26:43;4.40;98.50
4183;DHT22;2105;52.300;9.182;2023-02-26T16:29:15;4.30;98.20
4183;DHT22;2105;52.300;9.182;2023-02-26T16:31:46;4.20;99.90
4183;DHT22;2105;52.300;9.182;2023-02-26T16:34:31;4.20;99.90
4183;DHT22;2105;52.300;9.182;2023-02-26T16:37:17;4.30;99.90
4183;DHT22;2105;52.300;9.182;2023-02-26T16:39:46;4.20;99.90
4183;DHT22;2105;52.300;9.182;2023-02-26T16:42:21;4.20;99.90
4183;DHT22;2105;52.300;9.182;2023-02-26T16:45:00;4.10;99.90
4183;DHT22;2105;52.300;9.182;2023-02-26T16:47:29;4.20;99.90
4183;DHT22;2105;52.300;9.182;2023-02-26T16:49:56;4.30;99.90
4183;DHT22;2105;52.300;9.182;2023-02-26T16:52:25;4.30;99.90
4183;DHT22;2105;52.300;9.182;2023-02-26T16:54:56;4.30;99.90
4183;DHT22;2105;52.300;9.182;2023-02-26T16:57:29;4.30;99.90
4183;DHT22;2105;52.300;9.182;2023-02-26T17:00:04;4.20;99.90
4183;DHT22;2105;52.300;9.182;2023-02-26T17:02:34;4.10;99.90
4183;DHT22;2105;52.300;9.182;2023-02-26T17:05:07;4.10;99.90
4183;DHT22;2105;52.300;9.182;2023-02-26T17:07:45;4.10;99.90
4183;DHT22;2105;52.300;9.182;2023-02-26T17:10:18;4.10;99.90
4183;DHT22;2105;52.300;9.182;2023-02-26T17:12:49;4.10;99.90
4183;DHT22;2105;52.300;9.182;2023-02-26T17:15:20;4.00;99.90
4183;DHT22;2105;52.300;9.182;2023-02-26T17:17:52;4.00;99.90
4183;DHT22;2105;52.300;9.182;2023-02-26T17:20:21;4.00;99.90
4183;DHT22;2105;52.300;9.182;2023-02-26T17:22:48;4.00;99.90
4183;DHT22;2105;52.300;9.182;2023-02-26T17:25:17;4.00;99.90
4183;DHT22;2105;52.300;9.182;2023-02-26T17:27:45;3.90;99.90
4183;DHT22;2105;52.300;9.182;2023-02-26T17:30:15;3.90;99.90
4183;DHT22;2105;52.300;9.182;2023-02-26T17:32:44;3.90;99.90
4183;DHT22;2105;52.300;9.182;2023-02-26T17:35:11;3.90;99.90
4183;DHT22;2105;52.300;9.182;2023-02-26T17:37:39;3.90;99.90
4183;DHT22;2105;52.300;9.182;2023-02-26T17:40:19;3.90;99.90
4183;DHT22;2105;52.300;9.182;2023-02-26T17:42:46;3.90;99.90